Time;durP1;ratioP1;P1;durP2;ratioP2;P2;SDS_P1;SDS_P2;PMS_P1;PMS_P2;Temp;Humidity;BMP_temperature;BMP_pressure;BME280_temperature;BME280_humidity;BME280_pressure;Samples;Min_cycle;Max_cycle;Signal;HPM_P1;HPM_P2
2021/12/22 00:00:40;;;;;;;46.90;33.13;;;22.70;82.00;;;;;;1836158;78;21842;-71
2021/12/22 00:03:11;;;;;;;50.45;33.30;;;22.70;81.80;;;;;;1836467;76;22104;-71
2021/12/22 00:05:45;;;;;;;45.83;30.82;;;22.60;81.50;;;;;;1838472;76;21086;-70
2021/12/22 00:08:17;;;;;;;50.35;31.82;;;22.70;81.50;;;;;;1842999;76;21173;-70
2021/12/22 00:10:49;;;;;;;47.17;32.30;;;22.70;81.60;;;;;;1834508;78;21133;-70
2021/12/22 00:13:20;;;;;;;45.83;30.65;;;22.70;81.50;;;;;;1843627;76;21110;-71
2021/12/22 00:15:50;;;;;;;50.12;34.85;;;22.70;81.80;;;;;;1837295;76;21137;-70
2021/12/22 00:18:21;;;;;;;45.35;32.10;;;22.70;82.00;;;;;;1840571;76;21161;-70
2021/12/22 00:20:52;;;;;;;40.65;28.25;;;22.70;82.10;;;;;;1837152;76;21603;-71
2021/12/22 00:23:23;;;;;;;45.20;29.63;;;22.70;82.10;;;;;;1837243;78;21737;-69
2021/12/22 00:25:54;;;;;;;43.15;28.12;;;22.70;82.00;;;;;;1838061;76;21124;-70
2021/12/22 00:28:24;;;;;;;44.73;29.72;;;;;;;;;;1836461;78;21187;-70
2021/12/22 00:30:54;;;;;;;45.65;30.15;;;;;;;;;;1837460;76;21776;-70
2021/12/22 00:33:27;;;;;;;52.15;32.25;;;;;;;;;;1838471;77;21575;-70
2021/12/22 00:35:56;;;;;;;42.23;28.92;;;;;;;;;;1849868;76;21148;-70
2021/12/22 00:38:26;;;;;;;39.92;26.62;;;;;;;;;;1846770;76;21146;-70
2021/12/22 00:40:56;;;;;;;40.50;26.97;;;;;;;;;;1838132;78;21106;-70
2021/12/22 00:43:26;;;;;;;40.98;27.02;;;;;;;;;;1842239;77;21108;-70
2021/12/22 00:45:56;;;;;;;36.08;25.10;;;;;;;;;;1803868;78;21084;-69
2021/12/22 00:48:27;;;;;;;37.70;25.43;;;;;;;;;;1790872;79;21218;-70
2021/12/22 00:50:57;;;;;;;47.88;27.27;;;;;;;;;;1788083;79;21366;-70
2021/12/22 00:53:28;;;;;;;42.00;26.75;;;;;;;;;;1853115;76;21191;-70
2021/12/22 00:55:58;;;;;;;35.13;22.87;;;;;;;;;;1847337;76;21109;-70
2021/12/22 00:58:28;;;;;;;35.35;23.87;;;;;;;;;;1847474;76;21242;-69
2021/12/22 01:00:58;;;;;;;33.48;23.85;;;;;;;;;;1847464;76;22176;-70
2021/12/22 01:03:28;;;;;;;35.65;25.55;;;;;;;;;;1849546;76;21158;-70
2021/12/22 01:05:58;;;;;;;38.17;27.07;;;;;;;;;;1851350;76;21068;-70
2021/12/22 01:08:28;;;;;;;39.65;29.15;;;;;;;;;;1848515;76;21828;-70
2021/12/22 01:10:58;;;;;;;39.03;27.22;;;;;;;;;;1824070;77;21678;-71
2021/12/22 01:13:29;;;;;;;35.25;25.40;;;;;;;;;;1847238;77;21192;-70
2021/12/22 01:16:00;;;;;;;30.00;20.92;;;;;;;;;;1847756;77;21138;-70
2021/12/22 01:18:34;;;;;;;29.95;22.30;;;;;;;;;;1847237;77;21101;-70
2021/12/22 01:22:19;;;;;;;30.60;22.42;;;;;;;;;;1847964;77;21091;-70
2021/12/22 01:23:41;;;;;;;27.48;20.90;;;;;;;;;;1843270;77;21074;-70
2021/12/22 01:26:08;;;;;;;33.45;22.87;;;;;;;;;;1848880;76;21138;-71
2021/12/22 01:28:42;;;;;;;33.13;23.35;;;;;;;;;;1818269;78;21177;-70
2021/12/22 01:31:15;;;;;;;35.08;22.13;;;;;;;;;;1856725;76;21157;-70
2021/12/22 01:33:42;;;;;;;33.00;21.93;;;;;;;;;;1875284;76;21093;-70
2021/12/22 01:36:13;;;;;;;33.70;23.12;;;;;;;;;;1845769;76;21137;-70
2021/12/22 01:38:43;;;;;;;32.53;21.02;;;;;;;;;;1848443;76;21104;-70
2021/12/22 01:41:14;;;;;;;27.80;20.72;;;;;;;;;;1865138;76;21576;-70
2021/12/22 01:43:46;;;;;;;28.17;21.40;;;;;;;;;;1854167;76;21085;-70
2021/12/22 01:49:09;;;;;;;27.05;19.05;;;;;;;;;;1847904;76;21584;-70
2021/12/22 01:51:22;;;;;;;30.35;21.15;;;;;;;;;;1836902;76;21238;-71
2021/12/22 01:53:52;;;;;;;28.45;18.98;;;;;;;;;;1844572;76;21174;-70
2021/12/22 01:56:25;;;;;;;27.85;19.35;;;;;;;;;;1858671;76;21093;-70
2021/12/22 01:58:56;;;;;;;30.65;22.25;;;;;;;;;;1799801;76;21224;-71
2021/12/22 02:01:27;;;;;;;33.33;21.27;;;;;;;;;;1835904;76;21227;-70
2021/12/22 02:03:58;;;;;;;32.80;23.42;;;;;;;;;;1786125;78;21624;-71
2021/12/22 02:06:28;;;;;;;30.95;21.20;;;;;;;;;;1787665;78;21298;-71
2021/12/22 02:08:59;;;;;;;29.95;22.73;;;;;;;;;;1806566;78;21191;-71
2021/12/22 02:11:29;;;;;;;30.02;21.95;;;;;;;;;;1815695;78;21101;-71
2021/12/22 02:14:03;;;;;;;30.97;22.25;;;;;;;;;;1825380;78;21704;-71
2021/12/22 02:16:36;;;;;;;29.77;20.97;;;;;;;;;;1823918;78;21221;-70
2021/12/22 02:19:06;;;;;;;30.08;21.40;;;;;;;;;;1817519;78;21647;-71
2021/12/22 02:21:46;;;;;;;27.70;21.00;;;;;;;;;;1814538;78;21715;-71
2021/12/22 02:24:08;;;;;;;30.65;21.30;;;;;;;;;;1865176;75;21118;-71
2021/12/22 02:27:04;;;;;;;29.32;19.23;;;;;;;;;;1884869;75;21084;-71
2021/12/22 02:29:35;;;;;;;27.48;19.17;;;;;;;;;;1882375;75;21143;-72
2021/12/22 02:31:45;;;;;;;22.35;17.42;;;;;;;;;;1881372;75;21768;-72
2021/12/22 02:34:16;;;;;;;27.05;17.37;;;;;;;;;;1886182;75;21167;-72
2021/12/22 02:36:44;;;;;;;21.77;16.77;;;;;;;;;;1874424;75;21119;-72
2021/12/22 02:39:14;;;;;;;22.52;16.48;;;;;;;;;;1875794;75;22396;-72
2021/12/22 02:41:44;;;;;;;16.40;12.58;;;;;;;;;;1877083;75;21192;-73
2021/12/22 02:44:15;;;;;;;13.75;11.15;;;;;;;;;;1884279;75;21131;-71
2021/12/22 02:46:45;;;;;;;16.90;12.28;;;;;;;;;;1885885;75;21182;-70
2021/12/22 02:49:15;;;;;;;17.10;11.30;;;;;;;;;;1883256;75;21154;-69
2021/12/22 02:51:45;;;;;;;17.42;13.20;;;;;;;;;;1879216;75;21123;-71
2021/12/22 02:54:21;;;;;;;17.00;11.95;;;;;;;;;;1884620;75;21266;-70
2021/12/22 03:04:27;;;;;;;18.45;12.37;;;;;;;;;;1885507;75;21308;-72
2021/12/22 03:06:59;;;;;;;15.88;12.47;;;;;;;;;;1910206;74;21157;-72
2021/12/22 03:09:26;;;;;;;19.45;13.83;;;;;;;;;;1913346;74;21186;-70
2021/12/22 03:11:58;;;;;;;18.48;13.40;;;;;;;;;;1908238;74;21677;-71
2021/12/22 03:14:28;;;;;;;16.60;12.88;;;;;;;;;;1907001;74;21122;-70
2021/12/22 03:16:59;;;;;;;18.25;13.75;;;;;;;;;;1903280;74;21130;-69
2021/12/22 03:19:30;;;;;;;20.32;13.50;;;;;;;;;;1908983;74;21462;-69
2021/12/22 03:22:06;;;;;;;18.52;12.70;;;;;;;;;;1909407;74;21178;-70
2021/12/22 03:24:34;;;;;;;35.03;16.95;;;;;;;;;;1915100;74;21793;-70
2021/12/22 03:27:04;;;;;;;20.68;14.30;;;;;;;;;;1903317;74;21116;-70
2021/12/22 03:29:36;;;;;;;170.77;28.12;;;;;;;;;;1906928;74;21645;-70
2021/12/22 03:32:07;;;;;;;20.70;14.00;;;;;;;;;;1901592;75;21171;-70
2021/12/22 03:34:39;;;;;;;20.37;14.43;;;;;;;;;;1911739;74;21538;-70
2021/12/22 03:37:09;;;;;;;20.12;14.90;;;;;;;;;;1912126;74;21156;-70
2021/12/22 03:39:40;;;;;;;21.12;15.30;;;;;;;;;;1902920;74;21098;-71
2021/12/22 03:42:12;;;;;;;20.32;15.15;;;;;;;;;;1877920;75;21141;-71
2021/12/22 03:44:43;;;;;;;22.42;15.25;;;;;;;;;;1906093;74;21153;-71
2021/12/22 03:47:14;;;;;;;20.88;14.85;;;;;;;;;;1917198;74;21208;-70
2021/12/22 03:49:44;;;;;;;21.10;14.18;;;;;;;;;;1902416;74;21146;-70
2021/12/22 03:52:14;;;;;;;21.30;15.43;;;;;;;;;;1909352;74;21158;-69
2021/12/22 03:54:45;;;;;;;23.02;15.75;;;;;;;;;;1871246;75;21648;-69
2021/12/22 03:57:15;;;;;;;22.13;14.63;;;;;;;;;;1915493;74;21159;-70
2021/12/22 03:59:45;;;;;;;23.07;15.72;;;;;;;;;;1915536;74;21111;-71
2021/12/22 04:02:19;;;;;;;23.90;15.65;;;;;;;;;;1909543;74;21216;-69
2021/12/22 04:04:49;;;;;;;23.92;16.12;;;;;;;;;;1918420;74;21158;-70
2021/12/22 04:07:19;;;;;;;24.00;16.77;;;;;;;;;;1866214;75;21321;-69
2021/12/22 04:09:49;;;;;;;21.48;15.85;;;;;;;;;;1896943;74;22092;-70
2021/12/22 04:12:20;;;;;;;20.70;15.83;;;;;;;;;;1894356;74;21135;-72
2021/12/22 04:14:50;;;;;;;21.55;15.05;;;;;;;;;;1899276;74;21569;-71
2021/12/22 04:17:20;;;;;;;20.75;15.90;;;;;;;;;;1914289;75;21156;-70
2021/12/22 04:19:50;;;;;;;22.50;16.48;;;;;;;;;;1886547;75;21234;-70
2021/12/22 04:22:20;;;;;;;23.95;16.90;;;;;;;;;;1898772;75;21163;-70
2021/12/22 04:24:50;;;;;;;23.65;16.87;;;;;;;;;;1899207;75;21078;-71
2021/12/22 04:27:21;;;;;;;25.65;16.35;;;;;;;;;;1911689;75;21084;-69
2021/12/22 04:29:51;;;;;;;24.50;17.57;;;;;;;;;;1910563;75;21081;-69
2021/12/22 04:32:22;;;;;;;30.02;18.87;;;;;;;;;;1887844;75;21662;-70
2021/12/22 04:34:52;;;;;;;28.12;18.87;;;;;;;;;;1883007;75;22220;-70
2021/12/22 04:37:22;;;;;;;26.37;18.62;;;;;;;;;;1886314;74;21162;-71
2021/12/22 04:39:53;;;;;;;26.95;21.05;;;;;;;;;;1885701;74;21178;-71
2021/12/22 04:42:23;;;;;;;29.07;19.27;;;;;;;;;;1885105;76;21194;-70
2021/12/22 04:44:56;;;;;;;25.27;19.27;;;;;;;;;;1883824;75;21209;-71
2021/12/22 04:47:24;;;;;;;30.72;18.87;;;;;;;;;;1881066;76;21162;-69
2021/12/22 04:49:54;;;;;;;26.05;19.85;;;;;;;;;;1883293;76;21170;-70
2021/12/22 04:52:27;;;;;;;28.12;20.02;;;;;;;;;;1885263;76;21111;-71
2021/12/22 04:55:03;;;;;;;27.93;19.23;;;;;;;;;;1889099;75;21579;-70
2021/12/22 04:57:28;;;;;;;25.30;18.98;;;;;;;;;;1867848;76;21667;-71
2021/12/22 04:59:58;;;;;;;26.25;18.27;;;;;;;;;;1868833;76;21147;-71
2021/12/22 05:02:28;;;;;;;23.47;18.10;;;;;;;;;;1880689;76;21237;-71
2021/12/22 05:04:59;;;;;;;20.08;17.05;;;;;;;;;;1882962;75;21195;-71
2021/12/22 05:07:28;;;;;;;25.70;17.07;;;;;;;;;;1884708;74;21225;-72
2021/12/22 05:09:59;;;;;;;29.40;17.65;;;;;;;;;;1887574;74;21088;-73
2021/12/22 05:12:29;;;;;;;23.30;16.97;;;;;;;;;;1864337;76;21205;-74
2021/12/22 05:15:00;;;;;;;21.23;17.23;;;;;;;;;;1886209;76;21107;-73
2021/12/22 05:20:01;;;;;;;20.72;16.30;;;;;;;;;;1878403;76;21069;-73
2021/12/22 05:22:31;;;;;;;19.85;15.93;;;;;;;;;;1886259;76;21079;-74
2021/12/22 05:25:02;;;;;;;21.30;16.55;;;;;;;;;;1886503;76;21099;-73
2021/12/22 05:27:32;;;;;;;19.82;15.70;;;;;;;;;;1886751;76;21143;-71
2021/12/22 05:30:05;;;;;;;20.88;16.25;;;;;;;;;;1884010;76;21600;-72
2021/12/22 05:32:36;;;;;;;23.20;17.23;;;;;;;;;;1884978;76;21083;-73
2021/12/22 05:35:07;;;;;;;22.15;17.87;;;;;;;;;;1896776;75;21615;-73
2021/12/22 05:37:38;;;;;;;21.17;15.50;;;;;;;;;;1885660;75;21136;-73
2021/12/22 05:40:08;;;;;;;23.57;15.85;;;;;;;;;;1886741;76;21203;-73
2021/12/22 05:42:38;;;;;;;20.88;15.98;;;;;;;;;;1815542;79;21655;-74
2021/12/22 05:45:09;;;;;;;26.87;15.90;;;;;;;;;;1891648;75;21045;-73
2021/12/22 05:47:39;;;;;;;21.82;16.07;;;;;;;;;;1896159;75;21143;-72
2021/12/22 05:50:10;;;;;;;24.07;16.60;;;;;;;;;;1872547;76;21270;-72
2021/12/22 05:52:40;;;;;;;23.75;15.98;;;;;;;;;;1885549;75;21147;-74
2021/12/22 05:55:10;;;;;;;24.47;17.50;;;;;;;;;;1892204;74;21171;-74
2021/12/22 05:57:40;;;;;;;20.95;15.95;;;;;;;;;;1863750;76;21133;-74
2021/12/22 06:00:11;;;;;;;24.65;16.97;;;;;;;;;;1877477;75;21135;-73
2021/12/22 06:02:42;;;;;;;25.70;16.57;;;;;;;;;;1890231;75;21155;-73
2021/12/22 06:05:12;;;;;;;23.38;15.93;;;;;;;;;;1901732;75;21202;-73
2021/12/22 06:07:43;;;;;;;20.88;16.10;;;;;;;;;;1912355;75;21076;-73
2021/12/22 06:10:13;;;;;;;25.75;16.02;;;;;;;;;;1885912;75;21080;-72
2021/12/22 06:12:44;;;;;;;20.52;16.02;;;;;;;;;;1879013;75;21064;-72
2021/12/22 06:15:14;;;;;;;21.80;17.55;;;;;;;;;;1882190;75;22130;-73
2021/12/22 06:17:46;;;;;;;22.80;17.35;;;;;;;;;;1879232;75;21122;-74
2021/12/22 06:20:15;;;;;;;26.57;16.90;;;;;;;;;;1878509;75;21603;-72
2021/12/22 06:22:45;;;;;;;22.52;16.32;;;;;;;;;;1874200;75;21110;-73
2021/12/22 06:25:15;;;;;;;23.77;17.07;;;;;;;;;;1877691;75;21103;-73
2021/12/22 06:27:46;;;;;;;25.08;17.95;;;;;;;;;;1875395;75;21151;-73
2021/12/22 06:30:16;;;;;;;23.35;17.50;;;;;;;;;;1876592;75;21134;-73
2021/12/22 06:32:46;;;;;;;22.42;16.90;;;;;;;;;;1874460;75;21137;-70
2021/12/22 06:35:16;;;;;;;24.85;16.05;;;;;;;;;;1861193;77;21092;-69
2021/12/22 06:37:47;;;;;;;22.52;16.60;;;;;;;;;;1864064;75;21148;-70
2021/12/22 06:40:17;;;;;;;19.42;15.75;;;;;;;;;;1874106;75;21152;-70
2021/12/22 06:42:47;;;;;;;26.57;16.37;;;;;;;;;;1872326;75;21147;-70
2021/12/22 06:45:17;;;;;;;28.38;17.50;;;;;;;;;;1882781;75;21637;-70
2021/12/22 06:47:48;;;;;;;31.23;16.17;;;;;;;;;;1881803;75;21187;-70
2021/12/22 06:50:18;;;;;;;27.62;16.55;;;;;;;;;;1882985;75;21131;-70
2021/12/22 06:52:49;;;;;;;24.82;15.78;;;;;;;;;;1868678;75;21701;-71
2021/12/22 06:55:19;;;;;;;23.05;15.53;;;;;;;;;;1888235;75;21089;-72
2021/12/22 06:57:50;;;;;;;30.52;17.70;;;;;;;;;;1875606;75;21163;-70
2021/12/22 07:00:20;;;;;;;25.85;15.72;;;;;;;;;;1883866;75;21084;-70
2021/12/22 07:02:52;;;;;;;20.82;15.68;;;;;;;;;;1892001;75;21562;-70
2021/12/22 07:05:23;;;;;;;23.92;15.85;;;;;;;;;;1896106;75;21642;-70
2021/12/22 07:07:53;;;;;;;22.45;15.80;;;;;;;;;;1874471;75;21139;-70
2021/12/22 07:10:24;;;;;;;19.52;15.83;;;;;;;;;;1901106;75;21084;-70
2021/12/22 07:12:54;;;;;;;18.55;15.25;;;;;;;;;;1928182;74;21176;-70
2021/12/22 07:15:24;;;;;;;26.15;18.00;;;;;;;;;;1920085;74;21071;-71
2021/12/22 07:17:55;;;;;;;19.37;15.25;;;;;;;;;;1901605;74;21169;-70
2021/12/22 07:20:26;;;;;;;21.77;15.72;;;;;;;;;;1899485;75;21162;-71
2021/12/22 07:22:56;;;;;;;21.12;16.00;;;;;;;;;;1902139;75;21158;-70
2021/12/22 07:25:26;;;;;;;23.50;16.30;;;;;;;;;;1900916;74;21137;-71
2021/12/22 07:27:57;;;;;;;22.30;16.32;;;;;;;;;;1900854;74;21650;-71
2021/12/22 07:30:27;;;;;;;21.10;15.88;;;;;;;;;;1901027;74;21535;-71
2021/12/22 07:32:58;;;;;;;19.77;14.93;;;;;;;;;;1914090;74;21141;-69
2021/12/22 07:35:30;;;;;;;20.55;15.93;;;;;;;;;;1933941;74;21204;-69
2021/12/22 07:38:03;;;;;;;29.55;16.00;;;;;;;;;;1906366;74;21192;-69
2021/12/22 07:40:33;;;;;;;24.45;15.80;;;;;;;;;;1901548;74;21086;-69
2021/12/22 07:43:03;;;;;;;21.55;14.98;;;;;;;;;;1874027;75;21233;-70
2021/12/22 07:45:33;;;;;;;28.75;15.45;;;;;;;;;;1898856;75;21079;-70
2021/12/22 07:48:04;;;;;;;20.72;15.68;;;;;;;;;;1902478;74;21154;-70
2021/12/22 07:50:34;;;;;;;25.32;16.35;;;;;;;;;;1908158;74;21150;-70
2021/12/22 07:53:04;;;;;;;27.22;15.70;;;;;;;;;;1906972;74;21626;-70
2021/12/22 07:55:35;;;;;;;20.62;15.10;;;;;;;;;;1913533;74;21136;-69
2021/12/22 07:58:08;;;;;;;22.32;16.00;;;;;;;;;;1902157;75;21564;-69
2021/12/22 08:00:38;;;;;;;35.73;16.77;;;;;;;;;;1907332;74;21190;-69
2021/12/22 08:03:11;;;;;;;31.75;15.50;;;;;;;;;;1905738;74;21143;-69
2021/12/22 08:05:41;;;;;;;20.60;14.00;;;;;;;;;;1927742;74;21142;-69
2021/12/22 08:08:11;;;;;;;19.42;13.98;;;;;;;;;;1933409;74;21132;-70
2021/12/22 08:10:41;;;;;;;20.20;14.00;;;;;;;;;;1919598;75;21199;-69
2021/12/22 08:13:12;;;;;;;22.05;15.00;;;;;;;;;;1882373;75;21099;-71
2021/12/22 08:15:43;;;;;;;27.55;15.88;;;;;;;;;;1888616;76;21189;-70
2021/12/22 08:18:14;;;;;;;27.30;13.72;;;;;;;;;;1888569;76;21197;-70
2021/12/22 08:20:45;;;;;;;21.93;14.05;;;;;;;;;;1897504;75;21860;-70
2021/12/22 08:23:18;;;;;;;23.50;13.98;;;;;;;;;;1860801;76;21659;-70
2021/12/22 08:25:48;;;;;;;20.23;13.35;;;;;;;;;;1879187;75;21125;-70
2021/12/22 08:28:18;;;;;;;17.60;13.10;;;;;;;;;;1886634;75;21161;-70
2021/12/22 08:30:48;;;;;;;17.50;13.70;;;;;;;;;;1889249;75;21081;-70
2021/12/22 08:33:25;;;;;;;22.07;14.73;;;;;;;;;;1891765;74;21127;-70
2021/12/22 08:40:56;;;;;;;17.57;13.78;;;;;;;;;;1893329;75;21558;-70
2021/12/22 08:43:27;;;;;;;18.57;12.98;;;;;;;;;;1883361;76;21097;-69
2021/12/22 08:46:01;;;;;;;16.80;12.98;;;;;;;;;;1888629;75;21042;-70
2021/12/22 08:48:31;;;;;;;18.35;12.68;;;;;;;;;;1885629;76;21164;-72
2021/12/22 08:51:01;;;;;;;20.00;13.43;;;;;;;;;;1886049;76;21133;-71
2021/12/22 08:53:33;;;;;;;18.60;13.40;;;;;;;;;;1885451;76;21085;-71
2021/12/22 08:56:04;;;;;;;16.73;12.18;;;;;;;;;;1889352;76;21152;-70
2021/12/22 08:58:35;;;;;;;18.60;11.97;;;;;;;;;;1886393;75;21133;-71
2021/12/22 09:01:05;;;;;;;28.05;13.45;;;;;;;;;;1881404;74;21120;-71
2021/12/22 09:03:36;;;;;;;22.93;13.22;;;;;;;;;;1880915;75;21138;-71
2021/12/22 09:06:06;;;;;;;19.35;12.00;;;;;;;;;;1882948;75;21117;-70
2021/12/22 09:08:38;;;;;;;19.23;12.28;;;;;;;;;;1906736;75;21704;-71
2021/12/22 09:11:10;;;;;;;17.55;13.38;;;;;;;;;;1895475;75;21142;-72
2021/12/22 09:13:41;;;;;;;18.82;12.63;;;;;;;;;;1864936;77;21072;-70
2021/12/22 09:16:11;;;;;;;16.17;11.95;;;;;;;;;;1868414;77;21192;-71
2021/12/22 09:18:42;;;;;;;22.32;14.00;;;;;;;;;;1863653;77;21173;-70
2021/12/22 09:21:12;;;;;;;16.12;12.78;;;;;;;;;;1874440;75;21206;-70
2021/12/22 09:23:43;;;;;;;16.73;12.43;;;;;;;;;;1877863;75;21141;-71
2021/12/22 09:26:13;;;;;;;19.73;12.28;;;;;;;;;;1889719;75;21195;-71
2021/12/22 09:28:43;;;;;;;21.07;13.58;;;;;;;;;;1885365;75;21063;-71
2021/12/22 09:31:14;;;;;;;18.30;13.60;;;;;;;;;;1871445;75;21157;-69
2021/12/22 09:33:44;;;;;;;20.85;13.50;;;;;;;;;;1873136;75;21111;-70
2021/12/22 09:36:15;;;;;;;22.42;14.50;;;;;;;;;;1870564;77;21126;-70
2021/12/22 09:38:45;;;;;;;20.40;13.60;;;;;;;;;;1869975;77;21166;-69
2021/12/22 09:41:16;;;;;;;23.30;13.53;;;;;;;;;;1885419;75;21160;-70
2021/12/22 09:43:47;;;;;;;20.77;14.03;;;;;;;;;;1900425;75;21083;-69
2021/12/22 09:46:20;;;;;;;21.77;14.35;;;;;;;;;;1902904;74;21691;-71
2021/12/22 09:48:53;;;;;;;27.55;18.82;;;;;;;;;;1902342;74;21156;-70
2021/12/22 09:53:53;;;;;;;16.45;11.97;;;;;;;;;;1875773;75;21211;-69
2021/12/22 09:56:27;;;;;;;19.57;14.35;;;;;;;;;;1875812;75;21106;-70
2021/12/22 09:58:57;;;;;;;17.82;13.75;;;;;;;;;;1892891;75;21114;-69
2021/12/22 10:01:27;;;;;;;24.23;15.25;;;;;;;;;;1893354;75;21170;-69
2021/12/22 10:03:59;;;;;;;19.35;12.85;;;;;;;;;;1870678;77;21644;-69
2021/12/22 10:06:29;;;;;;;16.45;13.03;;;;;;;;;;1869978;75;21145;-69
2021/12/22 10:09:00;;;;;;;20.30;13.40;;;;;;;;;;1871015;75;21124;-70
2021/12/22 10:11:33;;;;;;;19.12;13.58;;;;;;;;;;1886759;75;21098;-70
2021/12/22 10:14:04;;;;;;;17.30;12.50;;;;;;;;;;1823248;78;21181;-71
2021/12/22 10:16:35;;;;;;;18.48;12.60;;;;;;;;;;1900662;75;21571;-71
2021/12/22 10:19:07;;;;;;;23.92;13.40;;;;;;;;;;1892640;75;21145;-70
2021/12/22 10:21:39;;;;;;;25.92;14.20;;;;;;;;;;1878965;75;21584;-70
2021/12/22 10:24:09;;;;;;;19.95;14.30;;;;;;;;;;1886430;74;21699;-70
2021/12/22 10:26:39;;;;;;;21.95;13.13;;;;;;;;;;1911233;75;21137;-70
2021/12/22 10:29:09;;;;;;;20.85;13.98;;;;;;;;;;1901319;75;21133;-70
2021/12/22 10:31:41;;;;;;;24.37;15.00;;;;;;;;;;1896910;73;21159;-69
2021/12/22 10:34:14;;;;;;;20.65;13.50;;;;;;;;;;1889252;74;21164;-71
2021/12/22 10:36:45;;;;;;;19.12;14.00;;;;;;;;;;1894145;75;21566;-70
2021/12/22 10:39:17;;;;;;;24.92;14.78;;;;;;;;;;1894863;74;21197;-71
2021/12/22 10:41:47;;;;;;;22.70;15.32;;;;;;;;;;1914005;74;21118;-70
2021/12/22 10:44:20;;;;;;;27.30;14.93;;;;;;;;;;1889589;75;21080;-68
2021/12/22 10:46:50;;;;;;;21.95;14.50;;;;;;;;;;1887976;75;21250;-69
2021/12/22 10:49:21;;;;;;;22.73;13.98;;;;;;;;;;1897872;75;21219;-68
2021/12/22 10:51:53;;;;;;;22.82;14.50;;;;;;;;;;1917173;75;21179;-70
2021/12/22 10:54:24;;;;;;;22.77;15.32;;;;;;;;;;1906249;75;21144;-70
2021/12/22 10:56:55;;;;;;;25.97;15.13;;;;;;;;;;1889740;75;21096;-71
2021/12/22 10:59:26;;;;;;;22.27;15.63;;;;;;;;;;1836617;78;21200;-70
2021/12/22 11:01:59;;;;;;;23.47;15.98;;;;;;;;;;1892248;75;21091;-70
2021/12/22 11:04:33;;;;;;;28.38;16.55;;;;;;;;;;1846662;78;21145;-72
2021/12/22 11:07:03;;;;;;;25.05;16.85;;;;;;;;;;1898250;75;21148;-70
2021/12/22 11:09:37;;;;;;;30.25;17.87;;;;;;;;;;1813573;78;21160;-70
2021/12/22 11:12:06;;;;;;;30.72;18.70;;;;;;;;;;1812008;78;21253;-69
2021/12/22 11:14:38;;;;;;;30.95;18.25;;;;;;;;;;1847313;77;21108;-70
2021/12/22 11:17:10;;;;;;;29.55;18.17;;;;;;;;;;1847368;77;21213;-71
2021/12/22 11:19:41;;;;;;;27.90;18.42;;;;;;;;;;1883804;75;21594;-69
2021/12/22 11:22:14;;;;;;;28.17;18.07;;;;;;;;;;1878694;75;21440;-70
2021/12/22 11:24:44;;;;;;;29.10;19.17;;;;;;;;;;1878300;75;21134;-71
2021/12/22 11:27:15;;;;;;;27.65;19.60;;;;;;;;;;1879858;75;21598;-70
2021/12/22 11:29:47;;;;;;;32.78;22.40;;;;;;;;;;1882409;75;21177;-69
2021/12/22 11:32:17;;;;;;;40.48;25.32;;;;;;;;;;1890367;75;21119;-70
2021/12/22 11:34:49;;;;;;;38.28;26.55;;;;;;;;;;1889804;75;21169;-71
2021/12/22 11:37:20;;;;;;;33.50;22.67;;;;;;;;;;1884276;75;21863;-70
2021/12/22 11:39:51;;;;;;;35.52;25.95;;;;;;;;;;1880214;75;21582;-70
2021/12/22 11:42:26;;;;;;;36.08;24.92;;;;;;;;;;1877440;75;21107;-79
2021/12/22 11:44:55;;;;;;;46.18;28.65;;;;;;;;;;1888646;75;22104;-79
2021/12/22 11:47:25;;;;;;;52.98;36.77;;;;;;;;;;1881679;75;21246;-79
2021/12/22 11:49:58;;;;;;;44.58;30.95;;;;;;;;;;1872262;75;21150;-80
2021/12/22 11:52:29;;;;;;;54.80;36.23;;;;;;;;;;1882008;75;21129;-80
2021/12/22 11:55:01;;;;;;;41.73;30.20;;;;;;;;;;1878727;75;21236;-80
2021/12/22 11:57:31;;;;;;;52.78;38.13;;;;;;;;;;1878655;75;21139;-79
2021/12/22 12:00:02;;;;;;;68.37;47.80;;;;;;;;;;1888654;75;21107;-79
2021/12/22 12:02:33;;;;;;;81.82;55.98;;;;;;;;;;1880905;75;21235;-79
2021/12/22 12:05:05;;;;;;;96.30;65.78;;;;;;;;;;1881946;75;21134;-79
2021/12/22 12:07:36;;;;;;;88.30;64.72;;;;;;;;;;1875161;75;21161;-78
2021/12/22 12:10:07;;;;;;;92.75;66.12;;;;;;;;;;1876089;75;21380;-80
2021/12/22 12:12:38;;;;;;;96.25;70.32;;;;;;;;;;1884357;74;21096;-79
2021/12/22 12:15:22;;;;;;;105.83;75.52;;;;;;;;;;1883379;75;21577;-80
2021/12/22 12:22:45;;;;;;;83.92;53.15;;;;;;;;;;1875094;75;21597;-79
2021/12/22 12:25:18;;;;;;;70.85;49.38;;;;;;;;;;1882012;75;21121;-79
2021/12/22 12:27:57;;;;;;;76.60;49.63;;;;;;;;;;1882225;75;21082;-78
2021/12/22 12:30:50;;;;;;;70.72;47.08;;;;;;;;;;1854672;75;21138;-79
2021/12/22 12:33:33;;;;;;;65.30;44.90;;;;;;;;;;1845319;77;21704;-79
2021/12/22 12:36:11;;;;;;;68.70;44.35;;;;;;;;;;1836606;77;21204;-79
2021/12/22 12:38:43;;;;;;;70.12;45.75;;;;;;;;;;1887384;75;21200;-80
2021/12/22 12:41:14;;;;;;;68.33;45.43;;;;;;;;;;1888001;75;21167;-80
2021/12/22 12:43:47;;;;;;;68.60;46.98;;;;;;;;;;1895404;75;21669;-79
2021/12/22 12:46:18;;;;;;;69.32;48.40;;;;;;;;;;1885726;75;21851;-80
2021/12/22 12:48:49;;;;;;;78.60;52.15;;;;;;;;;;1868789;75;21115;-80
2021/12/22 12:51:21;;;;;;;75.42;49.00;;;;;;;;;;1878215;75;21165;-80
2021/12/22 12:53:54;;;;;;;76.25;51.58;;;;;;;;;;1873079;75;21114;-80
2021/12/22 12:56:27;;;;;;;78.12;50.78;;;;;;;;;;1789346;79;21183;-79
2021/12/22 12:58:58;;;;;;;79.42;50.92;;;;;;;;;;1803501;78;21146;-80
2021/12/22 13:01:32;;;;;;;70.37;48.05;;;;;;;;;;1890576;74;21558;-80
2021/12/22 13:04:06;;;;;;;75.30;48.85;;;;;;;;;;1867597;75;21122;-80
2021/12/22 13:06:35;;;;;;;71.55;48.78;;;;;;;;;;1865008;75;21485;-79
2021/12/22 13:09:07;;;;;;;66.97;46.05;;;;;;;;;;1866598;75;21116;-79
2021/12/22 13:11:39;;;;;;;67.87;47.50;;;;;;;;;;1860082;75;21199;-81
2021/12/22 13:16:42;;;;;;;78.57;48.35;;;;;;;;;;1827149;78;21156;-79
2021/12/22 13:19:14;;;;;;;67.55;46.33;;;;;;;;;;1878562;76;21123;-79
2021/12/22 13:21:45;;;;;;;73.90;45.65;;;;;;;;;;1883205;76;21606;-79
2021/12/22 13:24:16;;;;;;;67.30;46.35;;;;;;;;;;1885436;76;21125;-79
2021/12/22 13:26:47;;;;;;;63.75;44.98;;;;;;;;;;1881298;76;21119;-80
2021/12/22 13:29:22;;;;;;;63.42;41.95;;;;;;;;;;1858905;76;21647;-80
2021/12/22 13:31:54;;;;;;;62.35;41.15;;;;;;;;;;1850583;76;21199;-79
2021/12/22 13:34:24;;;;;;;67.25;42.10;;;;;;;;;;1859121;75;21199;-80
2021/12/22 13:36:55;;;;;;;63.58;40.85;;;;;;;;;;1857621;74;21180;-78
2021/12/22 13:39:27;;;;;;;58.30;39.27;;;;;;;;;;1880463;76;21199;-78
2021/12/22 13:41:57;;;;;;;58.55;40.70;;;;;;;;;;1856202;76;21644;-79
2021/12/22 13:44:29;;;;;;;64.30;38.83;;;;;;;;;;1848026;76;21102;-79
2021/12/22 13:46:59;;;;;;;58.73;37.58;;;;;;;;;;1824496;77;21257;-78
2021/12/22 13:49:35;;;;;;;56.95;35.00;;;;;;;;;;1850875;76;21176;-78
2021/12/22 13:52:06;;;;;;;51.65;34.70;;;;;;;;;;1846375;76;21222;-80
2021/12/22 13:54:39;;;;;;;52.08;33.98;;;;;;;;;;1841261;77;21101;-80
2021/12/22 13:57:10;;;;;;;49.45;34.88;;;;;;;;;;1857135;76;21305;-79
2021/12/22 13:59:49;;;;;;;54.23;34.83;;;;;;;;;;1820223;77;21261;-79
2021/12/22 14:02:18;;;;;;;55.35;35.13;;;;;;;;;;1823041;78;21219;-79
2021/12/22 14:04:50;;;;;;;48.25;33.75;;;;;;;;;;1802642;77;21663;-80
2021/12/22 14:07:27;;;;;;;49.77;32.78;;;;;;;;;;1848718;77;21633;-80
2021/12/22 14:09:53;;;;;;;43.60;31.52;;;;;;;;;;1857444;76;21219;-79
2021/12/22 14:12:26;;;;;;;46.02;32.03;;;;;;;;;;1874680;76;21145;-79
2021/12/22 14:14:57;;;;;;;47.95;30.88;;;;;;;;;;1792597;79;21777;-79
2021/12/22 14:17:29;;;;;;;45.80;28.73;;;;;;;;;;1774301;80;21214;-78
2021/12/22 14:20:02;;;;;;;42.73;28.50;;;;;;;;;;1814399;79;21152;-79
2021/12/22 14:22:34;;;;;;;47.05;31.20;;;;;;;;;;1813780;77;21199;-78
2021/12/22 14:25:05;;;;;;;40.78;28.30;;;;;;;;;;1851565;77;21128;-79
2021/12/22 14:30:27;;;;;;;44.40;29.20;;;;;;;;;;1821132;77;21319;-78
2021/12/22 14:33:04;;;;;;;46.13;28.87;;;;;;;;;;1798433;78;21123;-79
2021/12/22 14:35:35;;;;;;;39.13;28.00;;;;;;;;;;1804682;79;21202;-78
2021/12/22 14:38:06;;;;;;;46.60;29.40;;;;;;;;;;1863913;75;21119;-78
2021/12/22 14:40:38;;;;;;;46.60;28.05;;;;;;;;;;1863628;76;21512;-78
2021/12/22 14:43:09;;;;;;;42.38;29.48;;;;;;;;;;1878647;76;21205;-79
2021/12/22 14:45:43;;;;;;;42.05;28.10;;;;;;;;;;1880788;76;21119;-78
2021/12/22 14:48:15;;;;;;;38.30;27.30;;;;;;;;;;1852464;75;21236;-78
2021/12/22 14:50:46;;;;;;;38.05;25.95;;;;;;;;;;1853362;76;21226;-78
2021/12/22 14:53:17;;;;;;;40.67;26.75;;;;;;;;;;1853319;76;21229;-79
2021/12/22 14:55:48;;;;;;;41.18;24.82;;;;;;;;;;1850832;76;21135;-78
2021/12/22 14:58:18;;;;;;;35.58;25.23;;;;;;;;;;1855541;76;21115;-78
2021/12/22 15:00:49;;;;;;;37.55;25.35;;;;;;;;;;1843103;76;21893;-78
2021/12/22 15:03:20;;;;;;;39.03;24.12;;;;;;;;;;1861279;77;21202;-79
2021/12/22 15:05:51;;;;;;;36.85;24.90;;;;;;;;;;1858785;77;21186;-79